sensor_id;sensor_type;location;lat;lon;timestamp;P1;durP1;ratioP1;P2;durP2;ratioP2
809;SDS011;387;48.772;9.186;2022-10-14T00:02:18;15.30;;;10.10;;
809;SDS011;387;48.772;9.186;2022-10-14T00:04:43;13.70;;;8.27;;
809;SDS011;387;48.772;9.186;2022-10-14T00:07:09;12.30;;;8.53;;
809;SDS011;387;48.772;9.186;2022-10-14T00:09:34;18.10;;;9.20;;
809;SDS011;387;48.772;9.186;2022-10-14T00:12:00;18.17;;;9.87;;
809;SDS011;387;48.772;9.186;2022-10-14T00:14:25;16.27;;;9.30;;
809;SDS011;387;48.772;9.186;2022-10-14T00:16:52;15.80;;;9.40;;
809;SDS011;387;48.772;9.186;2022-10-14T00:19:18;13.90;;;8.23;;
809;SDS011;387;48.772;9.186;2022-10-14T00:21:44;12.47;;;8.60;;
809;SDS011;387;48.772;9.186;2022-10-14T00:24:11;15.23;;;8.13;;
809;SDS011;387;48.772;9.186;2022-10-14T00:26:38;14.17;;;8.07;;
809;SDS011;387;48.772;9.186;2022-10-14T00:29:06;15.57;;;9.10;;
809;SDS011;387;48.772;9.186;2022-10-14T00:31:33;14.87;;;9.03;;
809;SDS011;387;48.772;9.186;2022-10-14T00:33:59;11.77;;;8.70;;
809;SDS011;387;48.772;9.186;2022-10-14T00:36:25;12.53;;;8.50;;
809;SDS011;387;48.772;9.186;2022-10-14T00:38:51;15.23;;;7.93;;
809;SDS011;387;48.772;9.186;2022-10-14T00:41:25;15.37;;;8.63;;
809;SDS011;387;48.772;9.186;2022-10-14T00:46:29;12.90;;;8.00;;
809;SDS011;387;48.772;9.186;2022-10-14T00:48:58;11.70;;;8.30;;
809;SDS011;387;48.772;9.186;2022-10-14T00:51:26;20.53;;;9.53;;
809;SDS011;387;48.772;9.186;2022-10-14T00:53:52;16.63;;;8.43;;
809;SDS011;387;48.772;9.186;2022-10-14T00:56:19;14.43;;;8.23;;
809;SDS011;387;48.772;9.186;2022-10-14T00:58:48;11.73;;;7.60;;
809;SDS011;387;48.772;9.186;2022-10-14T01:01:15;12.53;;;8.47;;
809;SDS011;387;48.772;9.186;2022-10-14T01:03:40;18.50;;;8.20;;
809;SDS011;387;48.772;9.186;2022-10-14T01:06:13;13.30;;;8.40;;
809;SDS011;387;48.772;9.186;2022-10-14T01:08:58;11.40;;;7.80;;
809;SDS011;387;48.772;9.186;2022-10-14T01:14:52;18.30;;;8.90;;
809;SDS011;387;48.772;9.186;2022-10-14T01:17:37;17.57;;;8.00;;
809;SDS011;387;48.772;9.186;2022-10-14T01:20:20;14.93;;;8.60;;
809;SDS011;387;48.772;9.186;2022-10-14T01:28:43;14.67;;;8.77;;
809;SDS011;387;48.772;9.186;2022-10-14T01:31:30;17.43;;;9.00;;
809;SDS011;387;48.772;9.186;2022-10-14T01:34:00;10.77;;;7.40;;
809;SDS011;387;48.772;9.186;2022-10-14T01:36:34;16.87;;;8.20;;
809;SDS011;387;48.772;9.186;2022-10-14T01:39:10;12.97;;;8.10;;
809;SDS011;387;48.772;9.186;2022-10-14T01:41:42;14.60;;;8.17;;
809;SDS011;387;48.772;9.186;2022-10-14T01:44:11;17.23;;;9.13;;
809;SDS011;387;48.772;9.186;2022-10-14T01:46:42;16.33;;;8.50;;
809;SDS011;387;48.772;9.186;2022-10-14T01:49:35;12.30;;;8.70;;
809;SDS011;387;48.772;9.186;2022-10-14T01:52:04;13.23;;;7.90;;
809;SDS011;387;48.772;9.186;2022-10-14T01:54:34;13.10;;;8.10;;
809;SDS011;387;48.772;9.186;2022-10-14T01:57:04;15.50;;;8.80;;
809;SDS011;387;48.772;9.186;2022-10-14T01:59:35;13.33;;;8.63;;
809;SDS011;387;48.772;9.186;2022-10-14T02:02:02;18.10;;;8.50;;
809;SDS011;387;48.772;9.186;2022-10-14T02:04:28;14.10;;;8.40;;
809;SDS011;387;48.772;9.186;2022-10-14T02:06:59;18.13;;;9.57;;
809;SDS011;387;48.772;9.186;2022-10-14T02:17:37;14.60;;;8.80;;
809;SDS011;387;48.772;9.186;2022-10-14T02:20:22;17.10;;;9.27;;
809;SDS011;387;48.772;9.186;2022-10-14T02:22:59;15.80;;;9.43;;
809;SDS011;387;48.772;9.186;2022-10-14T02:25:29;15.40;;;9.03;;
809;SDS011;387;48.772;9.186;2022-10-14T02:27:57;22.40;;;8.80;;
809;SDS011;387;48.772;9.186;2022-10-14T02:30:26;15.57;;;9.40;;
809;SDS011;387;48.772;9.186;2022-10-14T02:32:53;17.77;;;8.87;;
809;SDS011;387;48.772;9.186;2022-10-14T02:35:21;18.33;;;9.23;;
809;SDS011;387;48.772;9.186;2022-10-14T02:37:48;17.20;;;9.03;;
809;SDS011;387;48.772;9.186;2022-10-14T02:40:20;17.80;;;9.50;;
809;SDS011;387;48.772;9.186;2022-10-14T02:42:51;19.37;;;10.60;;
809;SDS011;387;48.772;9.186;2022-10-14T02:45:16;20.07;;;10.37;;
809;SDS011;387;48.772;9.186;2022-10-14T02:47:43;14.97;;;9.63;;
809;SDS011;387;48.772;9.186;2022-10-14T02:50:09;16.57;;;9.00;;
809;SDS011;387;48.772;9.186;2022-10-14T02:52:35;16.80;;;9.90;;
809;SDS011;387;48.772;9.186;2022-10-14T02:55:00;17.87;;;9.00;;
809;SDS011;387;48.772;9.186;2022-10-14T02:57:26;17.70;;;9.27;;
809;SDS011;387;48.772;9.186;2022-10-14T02:59:51;16.93;;;9.40;;
809;SDS011;387;48.772;9.186;2022-10-14T03:02:17;14.33;;;8.70;;
809;SDS011;387;48.772;9.186;2022-10-14T03:04:43;18.47;;;9.30;;
809;SDS011;387;48.772;9.186;2022-10-14T03:07:08;14.07;;;8.90;;
809;SDS011;387;48.772;9.186;2022-10-14T03:09:34;14.87;;;8.17;;
809;SDS011;387;48.772;9.186;2022-10-14T03:11:59;17.47;;;9.23;;
809;SDS011;387;48.772;9.186;2022-10-14T03:14:25;13.70;;;7.77;;
809;SDS011;387;48.772;9.186;2022-10-14T03:16:50;15.80;;;9.23;;
809;SDS011;387;48.772;9.186;2022-10-14T03:19:16;14.07;;;8.37;;
809;SDS011;387;48.772;9.186;2022-10-14T03:21:41;16.50;;;9.90;;
809;SDS011;387;48.772;9.186;2022-10-14T03:24:07;16.57;;;10.97;;
809;SDS011;387;48.772;9.186;2022-10-14T03:26:33;16.13;;;9.77;;
809;SDS011;387;48.772;9.186;2022-10-14T03:28:59;23.73;;;11.63;;
809;SDS011;387;48.772;9.186;2022-10-14T03:31:25;18.60;;;10.23;;
809;SDS011;387;48.772;9.186;2022-10-14T03:33:50;14.90;;;9.27;;
809;SDS011;387;48.772;9.186;2022-10-14T03:36:16;16.77;;;9.30;;
809;SDS011;387;48.772;9.186;2022-10-14T03:38:41;21.13;;;11.50;;
809;SDS011;387;48.772;9.186;2022-10-14T03:41:07;19.13;;;10.77;;
809;SDS011;387;48.772;9.186;2022-10-14T03:43:33;19.70;;;12.40;;
809;SDS011;387;48.772;9.186;2022-10-14T03:45:58;19.80;;;11.60;;
809;SDS011;387;48.772;9.186;2022-10-14T03:48:24;21.73;;;11.90;;
809;SDS011;387;48.772;9.186;2022-10-14T03:50:49;21.47;;;11.87;;
809;SDS011;387;48.772;9.186;2022-10-14T03:53:15;22.93;;;13.03;;
809;SDS011;387;48.772;9.186;2022-10-14T03:55:40;22.40;;;12.80;;
809;SDS011;387;48.772;9.186;2022-10-14T03:58:06;21.33;;;11.90;;
809;SDS011;387;48.772;9.186;2022-10-14T04:00:33;27.20;;;13.60;;
809;SDS011;387;48.772;9.186;2022-10-14T04:02:59;18.73;;;11.03;;
809;SDS011;387;48.772;9.186;2022-10-14T04:05:25;19.30;;;12.03;;
809;SDS011;387;48.772;9.186;2022-10-14T04:07:56;24.87;;;12.37;;
809;SDS011;387;48.772;9.186;2022-10-14T04:10:22;22.83;;;12.60;;
809;SDS011;387;48.772;9.186;2022-10-14T04:12:48;37.97;;;14.93;;
809;SDS011;387;48.772;9.186;2022-10-14T04:15:14;28.07;;;13.97;;
809;SDS011;387;48.772;9.186;2022-10-14T04:17:40;18.93;;;12.60;;
809;SDS011;387;48.772;9.186;2022-10-14T04:20:06;24.03;;;12.70;;
809;SDS011;387;48.772;9.186;2022-10-14T04:22:31;20.23;;;11.10;;
809;SDS011;387;48.772;9.186;2022-10-14T04:24:57;27.00;;;12.20;;
809;SDS011;387;48.772;9.186;2022-10-14T04:27:23;23.63;;;12.23;;
809;SDS011;387;48.772;9.186;2022-10-14T04:29:49;23.60;;;12.97;;
809;SDS011;387;48.772;9.186;2022-10-14T04:32:14;25.30;;;12.00;;
809;SDS011;387;48.772;9.186;2022-10-14T04:34:41;19.83;;;12.03;;
809;SDS011;387;48.772;9.186;2022-10-14T04:37:06;20.20;;;11.97;;
809;SDS011;387;48.772;9.186;2022-10-14T04:39:32;21.97;;;11.00;;
809;SDS011;387;48.772;9.186;2022-10-14T04:41:58;18.90;;;11.93;;
809;SDS011;387;48.772;9.186;2022-10-14T04:44:23;24.57;;;11.90;;
809;SDS011;387;48.772;9.186;2022-10-14T04:46:49;20.53;;;11.73;;
809;SDS011;387;48.772;9.186;2022-10-14T04:49:14;23.63;;;13.33;;
809;SDS011;387;48.772;9.186;2022-10-14T04:51:40;26.43;;;13.30;;
809;SDS011;387;48.772;9.186;2022-10-14T04:54:06;22.40;;;12.20;;
809;SDS011;387;48.772;9.186;2022-10-14T04:56:32;17.97;;;10.67;;
809;SDS011;387;48.772;9.186;2022-10-14T04:58:57;23.73;;;10.53;;
809;SDS011;387;48.772;9.186;2022-10-14T05:01:23;19.10;;;11.40;;
809;SDS011;387;48.772;9.186;2022-10-14T05:03:49;17.20;;;10.20;;
809;SDS011;387;48.772;9.186;2022-10-14T05:06:15;17.93;;;10.50;;
809;SDS011;387;48.772;9.186;2022-10-14T05:08:41;16.73;;;9.70;;
809;SDS011;387;48.772;9.186;2022-10-14T05:11:07;23.17;;;11.70;;
809;SDS011;387;48.772;9.186;2022-10-14T05:13:32;23.63;;;11.90;;
809;SDS011;387;48.772;9.186;2022-10-14T05:15:58;26.57;;;11.73;;
809;SDS011;387;48.772;9.186;2022-10-14T05:18:23;16.83;;;9.83;;
809;SDS011;387;48.772;9.186;2022-10-14T05:20:49;24.53;;;10.70;;
809;SDS011;387;48.772;9.186;2022-10-14T05:23:14;18.27;;;11.03;;
809;SDS011;387;48.772;9.186;2022-10-14T05:25:40;23.93;;;11.40;;
809;SDS011;387;48.772;9.186;2022-10-14T05:28:06;21.60;;;11.10;;
809;SDS011;387;48.772;9.186;2022-10-14T05:30:31;20.97;;;11.50;;
809;SDS011;387;48.772;9.186;2022-10-14T05:32:57;19.50;;;10.77;;
809;SDS011;387;48.772;9.186;2022-10-14T05:35:23;15.57;;;9.10;;
809;SDS011;387;48.772;9.186;2022-10-14T05:37:53;22.27;;;10.80;;
809;SDS011;387;48.772;9.186;2022-10-14T05:40:20;22.77;;;11.90;;
809;SDS011;387;48.772;9.186;2022-10-14T05:42:46;19.93;;;10.00;;
809;SDS011;387;48.772;9.186;2022-10-14T05:45:11;19.23;;;9.80;;
809;SDS011;387;48.772;9.186;2022-10-14T05:47:37;18.03;;;11.17;;
809;SDS011;387;48.772;9.186;2022-10-14T05:50:02;21.03;;;11.67;;
809;SDS011;387;48.772;9.186;2022-10-14T05:52:28;20.47;;;11.23;;
809;SDS011;387;48.772;9.186;2022-10-14T05:54:56;18.20;;;11.20;;
809;SDS011;387;48.772;9.186;2022-10-14T05:57:21;23.23;;;11.23;;
809;SDS011;387;48.772;9.186;2022-10-14T05:59:47;20.93;;;11.03;;
809;SDS011;387;48.772;9.186;2022-10-14T06:02:12;22.03;;;11.50;;
809;SDS011;387;48.772;9.186;2022-10-14T06:04:38;21.57;;;12.30;;
809;SDS011;387;48.772;9.186;2022-10-14T06:07:06;22.97;;;11.23;;
809;SDS011;387;48.772;9.186;2022-10-14T06:09:34;23.57;;;11.23;;
809;SDS011;387;48.772;9.186;2022-10-14T06:12:00;21.63;;;11.83;;
809;SDS011;387;48.772;9.186;2022-10-14T06:14:25;20.07;;;11.70;;
809;SDS011;387;48.772;9.186;2022-10-14T06:16:51;26.03;;;11.80;;
809;SDS011;387;48.772;9.186;2022-10-14T06:19:16;19.17;;;10.77;;
809;SDS011;387;48.772;9.186;2022-10-14T06:21:42;17.90;;;9.90;;
809;SDS011;387;48.772;9.186;2022-10-14T06:24:08;17.77;;;10.37;;
809;SDS011;387;48.772;9.186;2022-10-14T06:26:35;16.50;;;9.90;;
809;SDS011;387;48.772;9.186;2022-10-14T06:29:01;23.30;;;11.00;;
809;SDS011;387;48.772;9.186;2022-10-14T06:31:26;20.20;;;11.30;;
809;SDS011;387;48.772;9.186;2022-10-14T06:33:52;26.17;;;11.93;;
809;SDS011;387;48.772;9.186;2022-10-14T06:36:17;25.03;;;11.23;;
809;SDS011;387;48.772;9.186;2022-10-14T06:38:43;19.53;;;12.30;;
809;SDS011;387;48.772;9.186;2022-10-14T06:41:08;21.43;;;12.60;;
809;SDS011;387;48.772;9.186;2022-10-14T06:43:34;24.67;;;11.70;;
809;SDS011;387;48.772;9.186;2022-10-14T06:46:00;19.60;;;11.00;;
809;SDS011;387;48.772;9.186;2022-10-14T06:48:28;17.73;;;11.00;;
809;SDS011;387;48.772;9.186;2022-10-14T06:50:56;22.90;;;12.03;;
809;SDS011;387;48.772;9.186;2022-10-14T06:53:23;16.97;;;10.17;;
809;SDS011;387;48.772;9.186;2022-10-14T06:55:48;19.40;;;11.63;;
809;SDS011;387;48.772;9.186;2022-10-14T06:58:20;23.10;;;12.23;;
809;SDS011;387;48.772;9.186;2022-10-14T07:00:46;25.20;;;12.13;;
809;SDS011;387;48.772;9.186;2022-10-14T07:03:11;20.10;;;11.40;;
809;SDS011;387;48.772;9.186;2022-10-14T07:05:37;15.80;;;10.40;;
809;SDS011;387;48.772;9.186;2022-10-14T07:08:02;23.80;;;11.80;;
809;SDS011;387;48.772;9.186;2022-10-14T07:10:28;20.70;;;11.67;;
809;SDS011;387;48.772;9.186;2022-10-14T07:12:53;18.13;;;10.10;;
809;SDS011;387;48.772;9.186;2022-10-14T07:15:20;18.60;;;10.00;;
809;SDS011;387;48.772;9.186;2022-10-14T07:17:45;20.17;;;10.37;;
809;SDS011;387;48.772;9.186;2022-10-14T07:20:11;18.17;;;10.50;;
809;SDS011;387;48.772;9.186;2022-10-14T07:22:37;17.50;;;11.10;;
809;SDS011;387;48.772;9.186;2022-10-14T07:25:03;14.83;;;7.97;;
809;SDS011;387;48.772;9.186;2022-10-14T07:27:29;19.43;;;10.03;;
809;SDS011;387;48.772;9.186;2022-10-14T07:29:54;16.60;;;9.37;;
809;SDS011;387;48.772;9.186;2022-10-14T07:32:20;18.87;;;9.20;;
809;SDS011;387;48.772;9.186;2022-10-14T07:34:45;20.07;;;10.80;;
809;SDS011;387;48.772;9.186;2022-10-14T07:37:11;18.40;;;10.90;;
809;SDS011;387;48.772;9.186;2022-10-14T07:39:36;14.40;;;8.77;;
809;SDS011;387;48.772;9.186;2022-10-14T07:42:02;15.20;;;8.83;;
809;SDS011;387;48.772;9.186;2022-10-14T07:44:28;16.10;;;8.90;;
809;SDS011;387;48.772;9.186;2022-10-14T07:46:53;16.30;;;8.57;;
809;SDS011;387;48.772;9.186;2022-10-14T07:49:20;16.13;;;7.93;;
809;SDS011;387;48.772;9.186;2022-10-14T07:51:47;11.40;;;7.33;;
809;SDS011;387;48.772;9.186;2022-10-14T07:54:14;15.10;;;8.00;;
809;SDS011;387;48.772;9.186;2022-10-14T07:56:45;12.70;;;7.57;;
809;SDS011;387;48.772;9.186;2022-10-14T07:59:13;14.33;;;7.33;;
809;SDS011;387;48.772;9.186;2022-10-14T08:01:39;12.90;;;6.63;;
809;SDS011;387;48.772;9.186;2022-10-14T08:04:05;9.23;;;6.53;;
809;SDS011;387;48.772;9.186;2022-10-14T08:06:30;12.50;;;8.13;;
809;SDS011;387;48.772;9.186;2022-10-14T08:08:56;12.17;;;8.00;;
809;SDS011;387;48.772;9.186;2022-10-14T08:11:23;16.17;;;8.50;;
809;SDS011;387;48.772;9.186;2022-10-14T08:13:51;12.90;;;6.80;;
809;SDS011;387;48.772;9.186;2022-10-14T08:18:57;15.33;;;7.40;;
809;SDS011;387;48.772;9.186;2022-10-14T08:21:25;14.30;;;8.13;;
809;SDS011;387;48.772;9.186;2022-10-14T08:23:51;11.43;;;7.00;;
809;SDS011;387;48.772;9.186;2022-10-14T08:26:32;12.67;;;7.50;;
809;SDS011;387;48.772;9.186;2022-10-14T08:29:00;16.13;;;8.13;;
809;SDS011;387;48.772;9.186;2022-10-14T08:31:27;18.33;;;7.63;;
809;SDS011;387;48.772;9.186;2022-10-14T08:33:53;16.17;;;8.00;;
809;SDS011;387;48.772;9.186;2022-10-14T08:36:19;14.93;;;7.43;;
809;SDS011;387;48.772;9.186;2022-10-14T08:38:45;15.10;;;7.13;;
809;SDS011;387;48.772;9.186;2022-10-14T08:49:13;15.20;;;6.83;;
809;SDS011;387;48.772;9.186;2022-10-14T08:51:50;11.17;;;6.50;;
809;SDS011;387;48.772;9.186;2022-10-14T08:54:39;10.20;;;6.20;;
809;SDS011;387;48.772;9.186;2022-10-14T08:57:28;11.90;;;6.20;;
809;SDS011;387;48.772;9.186;2022-10-14T09:00:00;12.73;;;5.60;;
809;SDS011;387;48.772;9.186;2022-10-14T09:02:31;12.43;;;5.63;;
809;SDS011;387;48.772;9.186;2022-10-14T09:05:08;12.80;;;5.90;;
809;SDS011;387;48.772;9.186;2022-10-14T09:07:38;8.73;;;5.40;;
809;SDS011;387;48.772;9.186;2022-10-14T09:10:05;10.90;;;5.40;;
809;SDS011;387;48.772;9.186;2022-10-14T09:12:34;10.67;;;5.27;;
809;SDS011;387;48.772;9.186;2022-10-14T09:15:11;9.90;;;4.60;;
809;SDS011;387;48.772;9.186;2022-10-14T09:17:51;12.43;;;6.27;;
809;SDS011;387;48.772;9.186;2022-10-14T09:20:24;11.80;;;5.90;;
809;SDS011;387;48.772;9.186;2022-10-14T09:22:55;12.40;;;5.57;;
809;SDS011;387;48.772;9.186;2022-10-14T09:25:21;12.33;;;5.80;;
809;SDS011;387;48.772;9.186;2022-10-14T09:27:46;8.67;;;4.83;;
809;SDS011;387;48.772;9.186;2022-10-14T09:30:13;7.53;;;4.87;;
809;SDS011;387;48.772;9.186;2022-10-14T09:35:39;8.67;;;4.47;;
809;SDS011;387;48.772;9.186;2022-10-14T09:37:58;7.20;;;4.53;;
809;SDS011;387;48.772;9.186;2022-10-14T09:40:28;8.13;;;5.00;;
809;SDS011;387;48.772;9.186;2022-10-14T09:43:18;6.70;;;5.03;;
809;SDS011;387;48.772;9.186;2022-10-14T09:46:02;8.27;;;4.30;;
809;SDS011;387;48.772;9.186;2022-10-14T09:48:42;7.77;;;4.27;;
809;SDS011;387;48.772;9.186;2022-10-14T09:51:18;10.73;;;4.70;;
809;SDS011;387;48.772;9.186;2022-10-14T09:53:53;10.43;;;4.87;;
809;SDS011;387;48.772;9.186;2022-10-14T09:59:04;8.43;;;4.73;;
809;SDS011;387;48.772;9.186;2022-10-14T10:01:47;7.67;;;5.07;;
809;SDS011;387;48.772;9.186;2022-10-14T10:07:02;15.83;;;5.77;;
809;SDS011;387;48.772;9.186;2022-10-14T10:09:29;10.03;;;5.87;;
809;SDS011;387;48.772;9.186;2022-10-14T10:11:55;9.70;;;5.47;;
809;SDS011;387;48.772;9.186;2022-10-14T10:14:28;7.53;;;4.77;;
809;SDS011;387;48.772;9.186;2022-10-14T10:17:18;7.70;;;4.47;;
809;SDS011;387;48.772;9.186;2022-10-14T10:19:44;16.33;;;5.53;;
809;SDS011;387;48.772;9.186;2022-10-14T10:22:15;7.70;;;4.30;;
809;SDS011;387;48.772;9.186;2022-10-14T10:27:31;7.40;;;5.30;;
809;SDS011;387;48.772;9.186;2022-10-14T10:32:40;10.70;;;5.50;;
809;SDS011;387;48.772;9.186;2022-10-14T10:35:14;8.50;;;5.17;;
809;SDS011;387;48.772;9.186;2022-10-14T10:41:05;8.83;;;5.33;;
809;SDS011;387;48.772;9.186;2022-10-14T10:54:56;8.00;;;4.60;;
809;SDS011;387;48.772;9.186;2022-10-14T11:00:11;6.20;;;4.40;;
809;SDS011;387;48.772;9.186;2022-10-14T11:05:22;6.87;;;3.97;;
809;SDS011;387;48.772;9.186;2022-10-14T11:08:38;8.27;;;5.00;;
809;SDS011;387;48.772;9.186;2022-10-14T11:11:39;8.10;;;3.57;;
809;SDS011;387;48.772;9.186;2022-10-14T11:14:32;8.40;;;4.80;;
809;SDS011;387;48.772;9.186;2022-10-14T11:17:32;7.40;;;4.23;;
809;SDS011;387;48.772;9.186;2022-10-14T11:20:39;11.17;;;5.50;;
809;SDS011;387;48.772;9.186;2022-10-14T11:28:44;12.57;;;6.30;;
809;SDS011;387;48.772;9.186;2022-10-14T11:39:15;6.43;;;5.20;;
809;SDS011;387;48.772;9.186;2022-10-14T11:44:37;11.77;;;5.10;;
809;SDS011;387;48.772;9.186;2022-10-14T11:47:24;6.57;;;4.70;;
809;SDS011;387;48.772;9.186;2022-10-14T11:50:01;9.23;;;3.97;;
809;SDS011;387;48.772;9.186;2022-10-14T11:52:36;8.00;;;4.90;;
809;SDS011;387;48.772;9.186;2022-10-14T11:57:59;5.97;;;4.47;;
809;SDS011;387;48.772;9.186;2022-10-14T12:06:33;9.57;;;4.30;;
809;SDS011;387;48.772;9.186;2022-10-14T12:09:27;8.63;;;4.60;;
809;SDS011;387;48.772;9.186;2022-10-14T12:12:00;8.80;;;4.60;;
809;SDS011;387;48.772;9.186;2022-10-14T12:14:38;6.87;;;4.30;;
809;SDS011;387;48.772;9.186;2022-10-14T12:20:26;6.90;;;4.30;;
809;SDS011;387;48.772;9.186;2022-10-14T12:23:10;8.03;;;4.10;;
809;SDS011;387;48.772;9.186;2022-10-14T12:25:44;9.83;;;4.07;;
809;SDS011;387;48.772;9.186;2022-10-14T12:28:21;5.00;;;3.27;;
809;SDS011;387;48.772;9.186;2022-10-14T12:30:47;9.90;;;3.80;;
809;SDS011;387;48.772;9.186;2022-10-14T12:33:15;4.60;;;3.43;;
809;SDS011;387;48.772;9.186;2022-10-14T12:35:45;5.77;;;3.57;;
809;SDS011;387;48.772;9.186;2022-10-14T12:38:17;6.90;;;3.50;;
809;SDS011;387;48.772;9.186;2022-10-14T12:40:44;5.47;;;3.10;;
809;SDS011;387;48.772;9.186;2022-10-14T12:43:13;4.40;;;3.30;;
809;SDS011;387;48.772;9.186;2022-10-14T12:45:46;5.97;;;3.03;;
809;SDS011;387;48.772;9.186;2022-10-14T12:48:25;7.40;;;3.47;;
809;SDS011;387;48.772;9.186;2022-10-14T12:50:56;4.53;;;3.20;;
809;SDS011;387;48.772;9.186;2022-10-14T12:53:34;6.03;;;3.67;;
809;SDS011;387;48.772;9.186;2022-10-14T12:56:11;5.97;;;3.50;;
809;SDS011;387;48.772;9.186;2022-10-14T12:59:00;4.37;;;3.10;;
809;SDS011;387;48.772;9.186;2022-10-14T13:01:27;3.40;;;2.93;;
809;SDS011;387;48.772;9.186;2022-10-14T13:03:57;4.37;;;2.60;;
809;SDS011;387;48.772;9.186;2022-10-14T13:06:30;5.93;;;3.20;;
809;SDS011;387;48.772;9.186;2022-10-14T13:11:42;5.80;;;3.27;;
809;SDS011;387;48.772;9.186;2022-10-14T13:14:43;6.83;;;4.07;;
809;SDS011;387;48.772;9.186;2022-10-14T13:17:59;5.20;;;2.77;;
809;SDS011;387;48.772;9.186;2022-10-14T13:31:53;5.70;;;3.10;;
809;SDS011;387;48.772;9.186;2022-10-14T13:37:33;4.97;;;2.63;;
809;SDS011;387;48.772;9.186;2022-10-14T13:42:41;7.00;;;2.50;;
809;SDS011;387;48.772;9.186;2022-10-14T13:45:10;4.40;;;2.87;;
809;SDS011;387;48.772;9.186;2022-10-14T13:47:41;2.80;;;2.30;;
809;SDS011;387;48.772;9.186;2022-10-14T13:50:12;3.83;;;2.07;;
809;SDS011;387;48.772;9.186;2022-10-14T13:52:42;2.57;;;2.20;;
809;SDS011;387;48.772;9.186;2022-10-14T13:55:16;6.20;;;2.57;;
809;SDS011;387;48.772;9.186;2022-10-14T13:57:57;7.60;;;3.37;;
809;SDS011;387;48.772;9.186;2022-10-14T14:00:31;3.53;;;2.57;;
809;SDS011;387;48.772;9.186;2022-10-14T14:03:00;5.23;;;2.80;;
809;SDS011;387;48.772;9.186;2022-10-14T14:05:30;3.53;;;2.63;;
809;SDS011;387;48.772;9.186;2022-10-14T14:07:59;3.40;;;2.37;;
809;SDS011;387;48.772;9.186;2022-10-14T14:10:25;4.20;;;2.40;;
809;SDS011;387;48.772;9.186;2022-10-14T14:12:51;5.50;;;2.50;;
809;SDS011;387;48.772;9.186;2022-10-14T14:15:26;2.50;;;2.10;;
809;SDS011;387;48.772;9.186;2022-10-14T14:17:53;4.57;;;3.07;;
809;SDS011;387;48.772;9.186;2022-10-14T14:20:23;5.30;;;2.63;;
809;SDS011;387;48.772;9.186;2022-10-14T14:22:52;5.27;;;3.30;;
809;SDS011;387;48.772;9.186;2022-10-14T14:28:16;5.63;;;2.93;;
809;SDS011;387;48.772;9.186;2022-10-14T14:30:37;4.77;;;3.47;;
809;SDS011;387;48.772;9.186;2022-10-14T14:33:05;5.47;;;2.90;;
809;SDS011;387;48.772;9.186;2022-10-14T14:35:34;3.53;;;2.40;;
809;SDS011;387;48.772;9.186;2022-10-14T14:38:00;7.70;;;3.63;;
809;SDS011;387;48.772;9.186;2022-10-14T14:40:26;5.17;;;3.50;;
809;SDS011;387;48.772;9.186;2022-10-14T14:43:00;9.47;;;4.90;;
809;SDS011;387;48.772;9.186;2022-10-14T14:45:31;8.00;;;3.53;;
809;SDS011;387;48.772;9.186;2022-10-14T14:48:05;6.77;;;3.60;;
809;SDS011;387;48.772;9.186;2022-10-14T14:50:32;6.70;;;4.13;;
809;SDS011;387;48.772;9.186;2022-10-14T14:53:05;7.13;;;4.50;;
809;SDS011;387;48.772;9.186;2022-10-14T15:00:53;5.60;;;3.80;;
809;SDS011;387;48.772;9.186;2022-10-14T15:03:20;7.10;;;4.40;;
809;SDS011;387;48.772;9.186;2022-10-14T15:05:53;16.13;;;4.10;;
809;SDS011;387;48.772;9.186;2022-10-14T15:08:22;9.00;;;3.90;;
809;SDS011;387;48.772;9.186;2022-10-14T15:10:50;6.20;;;3.60;;
809;SDS011;387;48.772;9.186;2022-10-14T15:13:41;6.00;;;3.73;;
809;SDS011;387;48.772;9.186;2022-10-14T15:16:11;4.73;;;3.30;;
809;SDS011;387;48.772;9.186;2022-10-14T15:18:37;6.73;;;2.90;;
809;SDS011;387;48.772;9.186;2022-10-14T15:31:33;6.10;;;2.80;;
809;SDS011;387;48.772;9.186;2022-10-14T15:34:00;4.43;;;3.13;;
809;SDS011;387;48.772;9.186;2022-10-14T15:36:27;11.50;;;3.30;;
809;SDS011;387;48.772;9.186;2022-10-14T15:38:54;5.00;;;3.40;;
809;SDS011;387;48.772;9.186;2022-10-14T15:41:22;5.47;;;3.50;;
809;SDS011;387;48.772;9.186;2022-10-14T15:43:48;6.27;;;3.00;;
809;SDS011;387;48.772;9.186;2022-10-14T15:46:13;5.40;;;2.90;;
809;SDS011;387;48.772;9.186;2022-10-14T15:48:58;3.90;;;2.30;;
809;SDS011;387;48.772;9.186;2022-10-14T15:51:28;3.80;;;2.80;;
809;SDS011;387;48.772;9.186;2022-10-14T15:53:55;4.37;;;2.70;;
809;SDS011;387;48.772;9.186;2022-10-14T15:56:21;3.83;;;2.77;;
809;SDS011;387;48.772;9.186;2022-10-14T15:58:47;4.17;;;2.70;;
809;SDS011;387;48.772;9.186;2022-10-14T16:01:19;3.13;;;2.57;;
809;SDS011;387;48.772;9.186;2022-10-14T16:03:47;5.10;;;2.93;;
809;SDS011;387;48.772;9.186;2022-10-14T16:06:14;4.90;;;3.13;;
809;SDS011;387;48.772;9.186;2022-10-14T16:08:40;2.57;;;2.20;;
809;SDS011;387;48.772;9.186;2022-10-14T16:11:09;3.53;;;2.60;;
809;SDS011;387;48.772;9.186;2022-10-14T16:13:43;3.60;;;2.73;;
809;SDS011;387;48.772;9.186;2022-10-14T16:16:09;3.37;;;2.40;;
809;SDS011;387;48.772;9.186;2022-10-14T16:18:36;3.97;;;2.40;;
809;SDS011;387;48.772;9.186;2022-10-14T16:21:02;3.63;;;2.60;;
809;SDS011;387;48.772;9.186;2022-10-14T16:23:27;3.50;;;2.60;;
809;SDS011;387;48.772;9.186;2022-10-14T16:25:53;5.40;;;2.87;;
809;SDS011;387;48.772;9.186;2022-10-14T16:28:19;4.53;;;2.70;;
809;SDS011;387;48.772;9.186;2022-10-14T16:30:46;6.10;;;2.70;;
809;SDS011;387;48.772;9.186;2022-10-14T16:33:17;4.13;;;3.00;;
809;SDS011;387;48.772;9.186;2022-10-14T16:35:49;4.80;;;2.70;;
809;SDS011;387;48.772;9.186;2022-10-14T16:38:17;2.43;;;2.20;;
809;SDS011;387;48.772;9.186;2022-10-14T16:40:43;4.53;;;2.27;;
809;SDS011;387;48.772;9.186;2022-10-14T16:43:08;4.03;;;2.27;;
809;SDS011;387;48.772;9.186;2022-10-14T16:45:34;3.60;;;2.43;;
809;SDS011;387;48.772;9.186;2022-10-14T16:48:00;3.73;;;2.20;;
809;SDS011;387;48.772;9.186;2022-10-14T16:50:25;3.30;;;2.27;;
809;SDS011;387;48.772;9.186;2022-10-14T16:52:52;4.90;;;2.90;;
809;SDS011;387;48.772;9.186;2022-10-14T16:55:36;2.33;;;1.90;;
809;SDS011;387;48.772;9.186;2022-10-14T16:58:03;4.20;;;2.67;;
809;SDS011;387;48.772;9.186;2022-10-14T17:00:29;3.97;;;2.20;;
809;SDS011;387;48.772;9.186;2022-10-14T17:02:54;2.50;;;2.10;;
809;SDS011;387;48.772;9.186;2022-10-14T17:05:20;2.70;;;2.37;;
809;SDS011;387;48.772;9.186;2022-10-14T17:07:45;6.67;;;3.20;;
809;SDS011;387;48.772;9.186;2022-10-14T17:10:11;4.87;;;3.07;;
809;SDS011;387;48.772;9.186;2022-10-14T17:12:37;4.57;;;2.80;;
809;SDS011;387;48.772;9.186;2022-10-14T17:15:03;5.70;;;2.90;;
809;SDS011;387;48.772;9.186;2022-10-14T17:17:30;3.23;;;2.33;;
809;SDS011;387;48.772;9.186;2022-10-14T17:19:55;8.80;;;2.67;;
809;SDS011;387;48.772;9.186;2022-10-14T17:22:21;4.60;;;2.40;;
809;SDS011;387;48.772;9.186;2022-10-14T17:24:47;2.60;;;2.00;;
809;SDS011;387;48.772;9.186;2022-10-14T17:27:13;4.20;;;2.80;;
809;SDS011;387;48.772;9.186;2022-10-14T17:29:39;2.90;;;1.97;;
809;SDS011;387;48.772;9.186;2022-10-14T17:32:05;3.80;;;2.60;;
809;SDS011;387;48.772;9.186;2022-10-14T17:34:31;3.87;;;2.43;;
809;SDS011;387;48.772;9.186;2022-10-14T17:36:56;6.70;;;3.00;;
809;SDS011;387;48.772;9.186;2022-10-14T17:39:23;4.70;;;3.10;;
809;SDS011;387;48.772;9.186;2022-10-14T17:41:50;4.97;;;2.80;;
809;SDS011;387;48.772;9.186;2022-10-14T17:44:16;4.90;;;2.87;;
809;SDS011;387;48.772;9.186;2022-10-14T17:46:42;4.60;;;3.10;;
809;SDS011;387;48.772;9.186;2022-10-14T17:49:08;4.70;;;3.50;;
809;SDS011;387;48.772;9.186;2022-10-14T17:51:34;6.53;;;2.53;;
809;SDS011;387;48.772;9.186;2022-10-14T17:54:01;4.80;;;3.33;;
809;SDS011;387;48.772;9.186;2022-10-14T17:56:29;4.70;;;3.40;;
809;SDS011;387;48.772;9.186;2022-10-14T17:58:56;5.53;;;3.23;;